Time;durP1;ratioP1;P1;durP2;ratioP2;P2;SDS_P1;SDS_P2;PMS_P1;PMS_P2;Temp;Humidity;BMP_temperature;BMP_pressure;BME280_temperature;BME280_humidity;BME280_pressure;Samples;Min_cycle;Max_cycle;Signal;HPM_P1;HPM_P2
2021/10/30 00:02:15;;;;;;;29.30;19.20;;;7.00;86.80;;;;;;5038623;28;20455;-42
2021/10/30 00:04:42;;;;;;;27.13;18.97;;;7.00;87.00;;;;;;5035491;28;20590;-42
2021/10/30 00:07:09;;;;;;;31.57;19.67;;;7.00;87.00;;;;;;5038996;28;20851;-42
2021/10/30 00:09:36;;;;;;;31.10;19.43;;;7.00;87.00;;;;;;5040994;28;20464;-42
2021/10/30 00:12:03;;;;;;;28.20;18.77;;;7.00;87.10;;;;;;5039488;28;20470;-42
2021/10/30 00:14:30;;;;;;;30.63;20.90;;;7.00;87.10;;;;;;5019422;28;20459;-42
2021/10/30 00:16:57;;;;;;;31.63;18.80;;;7.00;87.10;;;;;;5021236;28;20851;-42
2021/10/30 00:19:23;;;;;;;26.90;17.70;;;7.00;87.40;;;;;;5038644;28;20585;-42
2021/10/30 00:21:53;;;;;;;28.70;19.17;;;7.00;87.30;;;;;;5039713;28;20466;-42
2021/10/30 00:24:21;;;;;;;30.20;18.87;;;7.00;87.40;;;;;;5038444;28;20477;-42
2021/10/30 00:26:49;;;;;;;26.80;17.80;;;7.00;87.50;;;;;;5035534;28;20466;-42
2021/10/30 00:29:16;;;;;;;27.30;16.90;;;7.00;87.50;;;;;;5037032;28;20462;-42
2021/10/30 00:31:42;;;;;;;25.00;17.80;;;7.10;87.40;;;;;;5041015;28;20928;-42
2021/10/30 00:34:09;;;;;;;24.50;17.87;;;7.10;87.00;;;;;;5023568;28;20486;-42
2021/10/30 00:36:36;;;;;;;30.53;18.33;;;7.10;86.90;;;;;;5042285;28;20471;-42
2021/10/30 00:39:05;;;;;;;25.23;18.23;;;7.10;86.70;;;;;;5025966;28;20442;-42
2021/10/30 00:41:32;;;;;;;26.80;17.63;;;7.00;86.80;;;;;;5037455;28;20448;-42
2021/10/30 00:44:10;;;;;;;25.30;17.13;;;7.00;86.90;;;;;;5039182;28;20469;-42
2021/10/30 00:46:40;;;;;;;27.57;16.67;;;7.00;86.60;;;;;;5036157;28;20454;-42
2021/10/30 00:49:09;;;;;;;29.00;18.07;;;7.00;86.60;;;;;;5036709;28;20459;-42
2021/10/30 00:51:37;;;;;;;27.37;17.90;;;7.00;86.40;;;;;;5037129;28;20462;-42
2021/10/30 00:54:05;;;;;;;27.43;18.47;;;7.00;86.50;;;;;;5035084;28;20470;-42
2021/10/30 00:56:33;;;;;;;29.63;18.60;;;7.00;86.30;;;;;;5038310;28;20944;-42
2021/10/30 00:59:09;;;;;;;28.50;17.20;;;7.00;86.20;;;;;;5041626;28;20497;-42
2021/10/30 01:01:37;;;;;;;28.27;17.93;;;6.90;86.30;;;;;;5040685;28;20462;-42
2021/10/30 01:04:05;;;;;;;26.17;17.00;;;6.90;86.50;;;;;;5039081;28;20475;-42
2021/10/30 01:06:34;;;;;;;29.40;18.80;;;6.90;86.40;;;;;;5035381;28;20478;-42
2021/10/30 01:09:01;;;;;;;26.70;17.50;;;6.80;86.50;;;;;;5018244;28;20473;-42
2021/10/30 01:11:29;;;;;;;29.17;18.27;;;6.90;86.30;;;;;;5021377;28;20467;-42
2021/10/30 01:13:56;;;;;;;28.80;17.70;;;6.90;86.20;;;;;;5024681;28;20834;-42
2021/10/30 01:16:23;;;;;;;25.07;19.20;;;6.80;86.40;;;;;;5012306;28;20466;-42
2021/10/30 01:18:50;;;;;;;24.90;17.27;;;6.90;86.40;;;;;;5037463;28;20458;-42
2021/10/30 01:21:32;;;;;;;27.57;19.10;;;6.80;86.40;;;;;;5037109;28;20723;-42
2021/10/30 01:24:02;;;;;;;29.10;18.30;;;6.80;86.40;;;;;;5038485;28;20455;-42
2021/10/30 01:26:29;;;;;;;23.47;15.97;;;6.80;86.40;;;;;;5037388;28;20458;-42
2021/10/30 01:28:56;;;;;;;28.37;16.63;;;6.80;86.40;;;;;;5037796;28;20466;-42
2021/10/30 01:31:24;;;;;;;25.47;17.40;;;6.80;86.50;;;;;;5035807;28;20462;-42
2021/10/30 01:33:51;;;;;;;22.47;15.67;;;6.80;86.40;;;;;;5041904;28;20463;-42
2021/10/30 01:36:21;;;;;;;27.47;17.03;;;6.80;86.30;;;;;;5039315;28;20855;-42
2021/10/30 01:38:50;;;;;;;22.83;16.57;;;6.80;86.40;;;;;;5035789;28;20467;-42
2021/10/30 01:41:21;;;;;;;22.73;17.27;;;6.80;86.20;;;;;;5032631;28;20494;-42
2021/10/30 01:43:48;;;;;;;24.70;16.17;;;6.80;85.90;;;;;;5042736;28;20457;-41
2021/10/30 01:46:17;;;;;;;23.17;15.60;;;6.80;86.10;;;;;;5027653;28;20457;-41
2021/10/30 01:48:44;;;;;;;24.30;16.20;;;6.80;85.60;;;;;;5030607;28;20438;-41
2021/10/30 01:51:11;;;;;;;23.67;17.20;;;6.70;85.90;;;;;;5024521;28;20470;-41
2021/10/30 01:53:38;;;;;;;23.93;17.17;;;6.70;86.20;;;;;;5040448;28;20490;-41
2021/10/30 01:56:05;;;;;;;38.60;22.10;;;6.70;86.30;;;;;;5043309;28;20477;-41
2021/10/30 01:58:31;;;;;;;70.70;38.50;;;6.70;86.40;;;;;;5043062;28;20455;-41
2021/10/30 02:01:00;;;;;;;62.33;36.33;;;6.70;86.50;;;;;;5040949;28;20570;-42
2021/10/30 02:03:30;;;;;;;59.73;33.70;;;6.70;86.50;;;;;;5040041;28;20552;-42
2021/10/30 02:05:58;;;;;;;30.30;20.90;;;6.70;86.60;;;;;;5043828;28;20983;-42
2021/10/30 02:08:24;;;;;;;26.57;17.13;;;6.70;86.40;;;;;;5038813;28;20454;-42
2021/10/30 02:10:52;;;;;;;24.43;15.77;;;6.70;86.30;;;;;;5042731;28;20468;-42
2021/10/30 02:13:22;;;;;;;24.23;17.43;;;6.70;86.30;;;;;;5041466;28;20458;-42
2021/10/30 02:15:49;;;;;;;21.63;14.50;;;6.70;86.10;;;;;;5043089;28;20463;-41
2021/10/30 02:18:17;;;;;;;24.50;16.23;;;6.80;85.30;;;;;;5043084;28;20466;-41
2021/10/30 02:20:45;;;;;;;28.50;17.27;;;6.70;85.40;;;;;;5046087;28;20477;-43
2021/10/30 02:23:13;;;;;;;24.50;18.07;;;6.60;85.90;;;;;;5039676;28;20474;-42
2021/10/30 02:25:40;;;;;;;23.70;16.20;;;6.60;86.20;;;;;;5038519;28;20465;-42
2021/10/30 02:28:06;;;;;;;21.57;16.20;;;6.60;86.60;;;;;;5039655;28;20460;-43
2021/10/30 02:30:36;;;;;;;26.63;16.43;;;6.60;86.60;;;;;;5040485;28;20500;-43
2021/10/30 02:33:03;;;;;;;23.93;16.83;;;6.60;86.80;;;;;;5043886;28;20905;-43
2021/10/30 02:35:30;;;;;;;22.43;16.10;;;6.50;87.00;;;;;;5040599;28;20971;-43
2021/10/30 02:37:57;;;;;;;28.33;18.00;;;6.60;87.20;;;;;;5036496;28;20815;-43
2021/10/30 02:40:23;;;;;;;24.40;17.83;;;6.60;87.20;;;;;;5040469;28;20498;-43
2021/10/30 02:42:50;;;;;;;33.07;18.77;;;6.60;87.20;;;;;;5028044;28;20462;-43
2021/10/30 02:45:17;;;;;;;30.47;18.10;;;6.60;87.20;;;;;;5039335;28;20458;-43
2021/10/30 02:47:44;;;;;;;27.00;17.93;;;6.70;87.10;;;;;;5037472;28;20451;-43
2021/10/30 02:50:11;;;;;;;24.83;16.13;;;6.70;87.00;;;;;;5023915;28;20468;-42
2021/10/30 02:52:37;;;;;;;25.30;16.70;;;6.70;87.30;;;;;;5038046;28;21009;-42
2021/10/30 02:55:05;;;;;;;24.40;16.23;;;6.60;87.40;;;;;;5040993;28;20466;-43
2021/10/30 02:57:32;;;;;;;23.10;15.93;;;6.60;87.50;;;;;;5038657;28;20627;-42
2021/10/30 02:59:58;;;;;;;25.97;16.73;;;6.70;87.50;;;;;;5021061;28;20483;-43
2021/10/30 03:02:25;;;;;;;23.07;17.03;;;6.70;87.40;;;;;;5039314;28;20542;-43
2021/10/30 03:04:52;;;;;;;24.70;16.53;;;6.70;87.50;;;;;;5037658;28;20619;-43
2021/10/30 03:07:22;;;;;;;26.13;18.17;;;6.70;87.70;;;;;;5040440;28;20455;-43
2021/10/30 03:09:50;;;;;;;22.70;16.97;;;6.70;87.60;;;;;;5039980;28;20471;-43
2021/10/30 03:12:18;;;;;;;29.07;19.20;;;6.70;87.70;;;;;;5020046;28;20525;-43
2021/10/30 03:14:45;;;;;;;33.23;19.70;;;6.70;87.90;;;;;;5040973;28;20467;-43
2021/10/30 03:17:12;;;;;;;32.93;21.63;;;6.80;88.50;;;;;;5038742;28;20468;-43
2021/10/30 03:19:39;;;;;;;32.47;20.77;;;6.80;88.80;;;;;;5040315;28;20465;-43
2021/10/30 03:22:06;;;;;;;30.80;20.87;;;6.90;89.10;;;;;;5025193;28;20463;-43
2021/10/30 03:24:32;;;;;;;29.80;20.63;;;6.90;89.30;;;;;;5037764;28;20458;-43
2021/10/30 03:26:59;;;;;;;31.80;20.27;;;6.90;89.40;;;;;;5041063;28;20458;-43
2021/10/30 03:29:26;;;;;;;30.43;20.37;;;7.00;89.40;;;;;;5040634;28;20461;-43
2021/10/30 03:31:52;;;;;;;30.57;20.50;;;7.00;89.20;;;;;;5041576;28;20861;-43
2021/10/30 03:34:19;;;;;;;29.07;18.20;;;7.00;89.30;;;;;;5040615;28;20473;-43
2021/10/30 03:36:46;;;;;;;28.13;18.73;;;7.00;89.20;;;;;;5025043;28;20459;-43
2021/10/30 03:39:13;;;;;;;34.73;19.33;;;7.10;89.10;;;;;;5038882;28;20474;-43
2021/10/30 03:41:39;;;;;;;27.20;18.30;;;7.10;88.80;;;;;;5037883;28;20479;-43
2021/10/30 03:44:06;;;;;;;26.50;17.80;;;7.10;88.70;;;;;;5025708;28;20459;-43
2021/10/30 03:46:33;;;;;;;28.37;19.93;;;7.10;88.80;;;;;;5021720;28;20469;-43
2021/10/30 03:49:00;;;;;;;25.57;19.40;;;7.10;88.60;;;;;;5040405;28;20556;-43
2021/10/30 03:51:26;;;;;;;28.00;18.90;;;7.20;88.30;;;;;;5024629;28;20951;-42
2021/10/30 03:53:53;;;;;;;27.60;18.90;;;7.10;88.40;;;;;;5035109;28;20995;-42
2021/10/30 03:56:20;;;;;;;25.63;17.80;;;7.10;88.60;;;;;;5040073;28;20457;-42
2021/10/30 03:58:46;;;;;;;27.47;18.70;;;7.10;88.70;;;;;;5024530;28;21038;-42
2021/10/30 04:01:13;;;;;;;27.00;18.50;;;7.10;88.60;;;;;;5037136;28;20509;-42
2021/10/30 04:03:40;;;;;;;31.10;19.23;;;7.10;88.70;;;;;;5021848;28;20483;-42
2021/10/30 04:06:07;;;;;;;29.50;18.47;;;7.10;88.70;;;;;;5038056;28;20894;-42
2021/10/30 04:08:33;;;;;;;29.97;18.70;;;7.10;88.80;;;;;;5040766;28;20466;-42
2021/10/30 04:11:00;;;;;;;26.87;19.23;;;7.10;88.70;;;;;;5029802;28;20850;-42
2021/10/30 04:13:28;;;;;;;24.00;17.00;;;7.10;88.40;;;;;;5022697;28;20959;-42
2021/10/30 04:15:54;;;;;;;25.93;16.80;;;7.10;88.40;;;;;;5039259;28;20468;-42
2021/10/30 04:18:21;;;;;;;31.37;19.80;;;7.10;88.40;;;;;;5035619;28;20458;-42
2021/10/30 04:20:48;;;;;;;28.47;19.00;;;7.20;88.40;;;;;;5039130;28;20498;-42
2021/10/30 04:23:15;;;;;;;26.10;18.20;;;7.20;88.40;;;;;;5039091;28;20851;-42
2021/10/30 04:25:41;;;;;;;27.20;17.53;;;7.20;88.60;;;;;;5040825;28;21060;-42
2021/10/30 04:28:08;;;;;;;28.67;18.30;;;7.20;88.50;;;;;;5034943;28;20473;-42
2021/10/30 04:30:35;;;;;;;27.43;19.10;;;7.20;88.60;;;;;;5037886;28;20458;-42
2021/10/30 04:33:02;;;;;;;26.00;17.23;;;7.20;88.60;;;;;;5039371;28;20834;-42
2021/10/30 04:35:29;;;;;;;27.57;15.97;;;7.20;88.70;;;;;;5041169;28;20477;-42
2021/10/30 04:37:56;;;;;;;27.77;17.70;;;7.20;88.60;;;;;;5041022;28;20462;-42
2021/10/30 04:40:23;;;;;;;27.60;17.13;;;7.10;88.80;;;;;;5020517;28;21021;-42
2021/10/30 04:42:49;;;;;;;25.40;17.60;;;7.10;89.00;;;;;;5007983;28;20552;-42
2021/10/30 04:45:16;;;;;;;28.23;17.10;;;7.20;89.00;;;;;;5036906;28;20492;-42
2021/10/30 04:47:45;;;;;;;33.60;17.13;;;7.20;89.00;;;;;;5035470;28;20467;-42
2021/10/30 04:50:13;;;;;;;23.73;16.37;;;7.20;88.90;;;;;;5025809;28;20459;-42
2021/10/30 04:52:40;;;;;;;23.70;16.10;;;7.20;88.90;;;;;;5040937;28;20459;-42
2021/10/30 04:55:07;;;;;;;21.53;15.73;;;7.30;88.60;;;;;;5021380;28;20473;-42
2021/10/30 04:57:33;;;;;;;24.47;16.63;;;7.30;88.30;;;;;;5040093;28;20447;-42
2021/10/30 05:00:01;;;;;;;23.20;17.07;;;7.30;88.40;;;;;;5030541;28;21152;-42
2021/10/30 05:02:27;;;;;;;33.13;17.23;;;7.30;88.30;;;;;;5041975;28;20466;-43
2021/10/30 05:04:54;;;;;;;25.00;15.83;;;7.30;88.20;;;;;;5026400;28;20475;-43
2021/10/30 05:07:22;;;;;;;22.03;15.80;;;7.30;88.20;;;;;;5040275;28;20461;-43
2021/10/30 05:09:49;;;;;;;25.13;16.70;;;7.30;88.10;;;;;;5042833;28;20459;-43
2021/10/30 05:12:16;;;;;;;23.37;15.50;;;7.40;87.90;;;;;;5027272;28;20504;-43
2021/10/30 05:14:43;;;;;;;29.73;17.20;;;7.40;87.60;;;;;;5046353;28;20876;-43
2021/10/30 05:17:10;;;;;;;26.37;16.47;;;7.40;87.60;;;;;;5030771;28;20549;-43
2021/10/30 05:19:36;;;;;;;20.93;16.00;;;7.30;87.80;;;;;;5026489;28;21006;-43
2021/10/30 05:22:03;;;;;;;24.70;16.00;;;7.40;87.90;;;;;;5041153;28;20517;-43
2021/10/30 05:24:30;;;;;;;25.00;14.73;;;7.40;87.50;;;;;;5046271;28;20794;-43
2021/10/30 05:26:57;;;;;;;24.40;15.87;;;7.40;87.50;;;;;;5047586;28;20454;-43
2021/10/30 05:29:23;;;;;;;22.40;15.47;;;7.40;87.60;;;;;;5044972;28;20968;-43
2021/10/30 05:31:50;;;;;;;25.30;15.37;;;7.40;87.60;;;;;;5046198;28;20462;-43
2021/10/30 05:34:17;;;;;;;20.93;15.20;;;7.40;87.80;;;;;;5033442;28;20917;-43
2021/10/30 05:36:44;;;;;;;22.50;15.27;;;7.40;87.50;;;;;;5030220;28;20469;-43
2021/10/30 05:39:15;;;;;;;22.80;15.70;;;7.40;87.20;;;;;;5045250;28;20462;-43
2021/10/30 05:41:42;;;;;;;23.47;13.50;;;7.50;86.80;;;;;;5029569;28;20482;-43
2021/10/30 05:44:11;;;;;;;24.63;14.90;;;7.40;86.90;;;;;;5045752;28;20467;-43
2021/10/30 05:46:39;;;;;;;25.10;15.97;;;7.30;87.20;;;;;;5044905;28;20457;-43
2021/10/30 05:49:07;;;;;;;24.57;15.77;;;7.30;87.40;;;;;;5048290;28;20458;-43
2021/10/30 05:51:34;;;;;;;24.40;17.07;;;7.30;87.40;;;;;;5047686;28;20463;-43
2021/10/30 05:54:02;;;;;;;22.50;14.50;;;7.30;87.30;;;;;;5046544;28;20458;-43
2021/10/30 05:56:29;;;;;;;22.10;15.77;;;7.30;87.30;;;;;;5048348;28;20554;-43
2021/10/30 05:58:56;;;;;;;26.03;16.40;;;7.30;87.40;;;;;;5033559;28;20465;-43
2021/10/30 06:01:22;;;;;;;28.20;17.40;;;7.30;87.10;;;;;;5044001;28;20486;-43
2021/10/30 06:03:49;;;;;;;30.23;16.63;;;7.20;87.10;;;;;;5031053;28;20532;-43
2021/10/30 06:06:16;;;;;;;26.77;16.23;;;7.30;87.10;;;;;;5044695;28;20461;-43
2021/10/30 06:08:43;;;;;;;27.50;16.23;;;7.30;87.20;;;;;;5047539;28;20690;-43
2021/10/30 06:11:10;;;;;;;26.93;16.10;;;7.30;87.30;;;;;;5031204;28;20458;-43
2021/10/30 06:13:37;;;;;;;26.33;16.10;;;7.30;87.40;;;;;;5056874;28;20450;-43
2021/10/30 06:16:04;;;;;;;24.70;15.93;;;7.30;87.10;;;;;;5046185;28;20454;-43
2021/10/30 06:18:31;;;;;;;22.40;14.73;;;7.40;87.10;;;;;;5045634;28;20455;-43
2021/10/30 06:20:58;;;;;;;25.97;16.60;;;7.40;87.10;;;;;;5046170;28;21057;-43
2021/10/30 06:23:25;;;;;;;21.37;14.30;;;7.40;87.10;;;;;;5044303;28;20542;-43
2021/10/30 06:25:53;;;;;;;23.37;15.90;;;7.50;86.90;;;;;;5042795;28;20953;-43
2021/10/30 06:28:19;;;;;;;22.63;15.90;;;7.50;86.90;;;;;;5047577;28;20533;-43
2021/10/30 06:30:46;;;;;;;23.70;14.57;;;7.40;87.10;;;;;;5047571;28;20466;-43
2021/10/30 06:33:13;;;;;;;27.63;16.37;;;7.40;87.10;;;;;;5043233;28;20465;-43
2021/10/30 06:35:40;;;;;;;24.57;16.50;;;7.50;87.20;;;;;;5042891;28;20538;-43
2021/10/30 06:38:06;;;;;;;24.80;17.90;;;7.40;87.30;;;;;;5030552;28;20462;-43
2021/10/30 06:40:34;;;;;;;26.27;18.47;;;7.50;87.20;;;;;;5047933;28;20557;-43
2021/10/30 06:43:01;;;;;;;30.53;19.83;;;7.50;87.10;;;;;;5041223;28;20861;-43
2021/10/30 06:45:27;;;;;;;23.37;16.20;;;7.50;87.10;;;;;;5045156;28;20456;-43
2021/10/30 06:47:54;;;;;;;26.83;17.10;;;7.60;86.90;;;;;;5041555;28;20823;-43
2021/10/30 06:50:22;;;;;;;21.23;15.60;;;7.60;86.70;;;;;;5042923;28;20482;-43
2021/10/30 06:52:51;;;;;;;29.90;18.50;;;7.60;86.80;;;;;;5027877;28;20457;-43
2021/10/30 06:55:20;;;;;;;27.40;16.10;;;7.60;86.80;;;;;;5045735;28;20511;-43
2021/10/30 06:57:47;;;;;;;32.00;19.10;;;7.70;86.80;;;;;;5040155;28;20462;-43
2021/10/30 07:00:15;;;;;;;34.77;20.57;;;7.60;86.70;;;;;;5044717;28;20498;-43
2021/10/30 07:02:42;;;;;;;30.67;18.17;;;7.60;86.70;;;;;;5028830;28;20508;-43
2021/10/30 07:05:09;;;;;;;32.10;17.17;;;7.60;86.70;;;;;;5045672;28;20458;-43
2021/10/30 07:07:36;;;;;;;25.60;15.70;;;7.60;86.80;;;;;;5043450;28;20461;-43
2021/10/30 07:10:04;;;;;;;28.27;17.60;;;7.70;86.80;;;;;;5040067;28;20968;-43
2021/10/30 07:12:33;;;;;;;29.47;16.87;;;7.70;86.70;;;;;;5042642;28;20458;-43
2021/10/30 07:15:07;;;;;;;27.13;16.80;;;7.70;86.80;;;;;;5041700;28;20468;-43
2021/10/30 07:17:35;;;;;;;31.67;18.83;;;7.80;86.70;;;;;;5037190;28;20471;-43
2021/10/30 07:20:02;;;;;;;27.10;17.30;;;7.70;86.80;;;;;;5048726;28;21011;-43
2021/10/30 07:22:29;;;;;;;28.53;17.60;;;7.70;87.10;;;;;;5026601;28;20482;-43
2021/10/30 07:24:56;;;;;;;30.83;17.67;;;7.70;87.30;;;;;;5045025;28;20459;-44
2021/10/30 07:27:23;;;;;;;27.17;17.47;;;7.70;87.20;;;;;;5032104;28;20816;-43
2021/10/30 07:29:51;;;;;;;27.67;17.27;;;7.80;87.00;;;;;;5032959;28;20462;-43
2021/10/30 07:32:19;;;;;;;27.53;17.90;;;7.80;86.90;;;;;;5048905;28;20476;-43
2021/10/30 07:34:45;;;;;;;31.60;18.47;;;7.80;86.90;;;;;;5045230;28;20488;-43
2021/10/30 07:37:12;;;;;;;33.43;18.43;;;7.80;86.90;;;;;;5040363;28;20454;-43
2021/10/30 07:39:39;;;;;;;33.43;17.37;;;7.80;86.90;;;;;;5044415;28;20459;-43
2021/10/30 07:42:07;;;;;;;31.00;18.70;;;7.80;86.80;;;;;;5042522;28;20502;-43
2021/10/30 07:44:39;;;;;;;28.07;16.33;;;7.80;87.20;;;;;;5044991;28;20459;-43
2021/10/30 07:47:06;;;;;;;29.10;16.17;;;7.80;87.20;;;;;;5030850;28;20454;-43
2021/10/30 07:49:34;;;;;;;32.40;18.90;;;7.90;86.80;;;;;;5046695;28;20459;-43
2021/10/30 07:52:03;;;;;;;29.67;17.67;;;7.90;86.70;;;;;;5029580;28;20549;-43
2021/10/30 07:54:29;;;;;;;26.70;15.80;;;7.90;86.90;;;;;;5044376;28;20467;-43
2021/10/30 07:56:56;;;;;;;33.13;19.60;;;7.80;87.10;;;;;;5046674;28;20491;-43
2021/10/30 07:59:23;;;;;;;28.20;17.30;;;7.80;87.20;;;;;;5045447;28;20462;-43
2021/10/30 08:01:52;;;;;;;28.50;17.37;;;7.90;87.20;;;;;;5046093;28;20485;-43
2021/10/30 08:04:20;;;;;;;26.80;16.77;;;7.90;87.20;;;;;;5040558;28;20502;-43
2021/10/30 08:06:47;;;;;;;30.20;18.70;;;7.90;87.20;;;;;;5042415;28;20463;-43
2021/10/30 08:09:14;;;;;;;31.30;17.80;;;7.90;87.20;;;;;;5047188;28;20968;-43
2021/10/30 08:11:41;;;;;;;27.23;17.63;;;7.90;87.20;;;;;;5043162;28;20458;-43
2021/10/30 08:14:08;;;;;;;30.20;19.00;;;7.90;87.10;;;;;;5040531;28;20525;-43
2021/10/30 08:16:34;;;;;;;26.07;18.37;;;8.00;86.90;;;;;;5048140;28;20825;-43
2021/10/30 08:19:01;;;;;;;29.47;17.77;;;8.00;86.90;;;;;;5043909;28;20466;-43
2021/10/30 08:21:28;;;;;;;25.30;16.20;;;8.00;86.30;;;;;;5022908;28;20482;-43
2021/10/30 08:23:55;;;;;;;34.27;19.63;;;8.00;86.20;;;;;;5032055;28;20450;-43
2021/10/30 08:26:23;;;;;;;27.33;18.03;;;8.00;86.20;;;;;;5047727;28;20466;-43
2021/10/30 08:28:50;;;;;;;25.83;18.33;;;8.10;86.00;;;;;;5044678;28;20477;-43
2021/10/30 08:31:16;;;;;;;26.23;17.03;;;8.00;86.10;;;;;;5050862;28;20450;-43
2021/10/30 08:33:44;;;;;;;30.57;17.73;;;8.00;86.10;;;;;;5044329;28;20460;-43
2021/10/30 08:36:10;;;;;;;26.50;16.77;;;8.10;85.90;;;;;;5049016;28;20462;-43
2021/10/30 08:38:37;;;;;;;28.73;17.20;;;8.00;85.90;;;;;;5047157;28;20466;-43
2021/10/30 08:41:04;;;;;;;30.93;18.27;;;8.00;85.90;;;;;;5047993;28;20453;-43
2021/10/30 08:43:32;;;;;;;29.03;16.73;;;8.10;86.00;;;;;;5030987;28;20446;-43
2021/10/30 08:46:00;;;;;;;28.67;18.80;;;8.10;86.00;;;;;;5048791;28;20453;-43
2021/10/30 08:48:31;;;;;;;31.40;18.23;;;8.10;86.20;;;;;;5032480;28;20439;-43
2021/10/30 08:51:01;;;;;;;28.63;17.00;;;8.10;86.20;;;;;;5022933;28;20459;-43
2021/10/30 08:53:28;;;;;;;39.70;19.37;;;8.20;86.30;;;;;;5045923;28;20481;-43
2021/10/30 08:55:58;;;;;;;30.60;16.73;;;8.20;86.10;;;;;;5030734;28;20469;-43
2021/10/30 08:58:28;;;;;;;30.43;18.77;;;8.20;86.10;;;;;;5047882;28;20482;-43
2021/10/30 09:01:00;;;;;;;26.03;16.33;;;8.30;86.20;;;;;;5047030;28;20454;-43
2021/10/30 09:03:29;;;;;;;30.90;18.40;;;8.30;86.20;;;;;;5028791;28;20487;-43
2021/10/30 09:05:59;;;;;;;29.67;17.87;;;8.30;86.00;;;;;;5028688;28;20457;-43
2021/10/30 09:08:27;;;;;;;29.17;18.63;;;8.30;86.20;;;;;;5027574;28;20502;-43
2021/10/30 09:11:14;;;;;;;31.57;19.03;;;8.30;86.40;;;;;;5043287;28;21060;-43
2021/10/30 09:13:41;;;;;;;32.20;19.70;;;8.30;86.20;;;;;;5046892;28;20867;-43
2021/10/30 09:16:09;;;;;;;30.37;19.00;;;8.30;86.10;;;;;;5027507;28;20979;-43
2021/10/30 09:18:37;;;;;;;32.50;19.03;;;8.30;86.10;;;;;;5028724;28;20467;-43
2021/10/30 09:21:04;;;;;;;30.60;20.10;;;8.30;86.10;;;;;;5029856;28;20543;-43
2021/10/30 09:23:35;;;;;;;32.33;20.50;;;8.30;85.90;;;;;;5043299;28;20569;-43
2021/10/30 09:26:08;;;;;;;32.53;19.50;;;8.30;85.80;;;;;;5042724;28;20481;-43
2021/10/30 09:28:41;;;;;;;35.07;20.70;;;8.30;85.90;;;;;;5045269;28;20538;-43
2021/10/30 09:41:52;;;;;;;31.40;19.93;;;8.40;86.10;;;;;;5058004;27;20575;-41
2021/10/30 09:44:24;;;;;;;32.20;20.07;;;8.80;84.40;;;;;;5039024;28;20455;-41
2021/10/30 09:46:54;;;;;;;31.97;22.13;;;8.80;84.40;;;;;;5039940;28;20954;-41
2021/10/30 09:49:36;;;;;;;34.30;19.40;;;8.80;84.80;;;;;;5039950;28;20483;-41
2021/10/30 09:52:05;;;;;;;29.90;18.80;;;8.70;84.80;;;;;;5035077;28;20550;-41
2021/10/30 09:54:45;;;;;;;35.87;21.17;;;8.80;84.70;;;;;;5036501;28;20451;-41
2021/10/30 09:57:14;;;;;;;31.70;19.57;;;8.70;85.00;;;;;;5038604;28;20469;-41
2021/10/30 09:59:41;;;;;;;29.70;18.23;;;8.70;85.00;;;;;;5038015;28;20455;-41
2021/10/30 10:02:09;;;;;;;33.30;19.90;;;8.70;85.00;;;;;;5035624;28;20454;-41
2021/10/30 10:04:40;;;;;;;31.87;19.43;;;8.70;85.30;;;;;;5033045;28;20459;-41
2021/10/30 10:07:08;;;;;;;29.37;19.57;;;8.60;85.60;;;;;;5035764;28;20465;-41
2021/10/30 10:09:35;;;;;;;36.20;20.93;;;8.60;85.90;;;;;;5039783;28;20525;-41
2021/10/30 10:12:04;;;;;;;38.43;19.87;;;8.60;86.20;;;;;;5037709;28;20984;-41
2021/10/30 10:14:33;;;;;;;39.90;20.90;;;8.60;86.30;;;;;;5032933;28;20550;-41
2021/10/30 10:17:00;;;;;;;43.10;22.77;;;8.60;86.50;;;;;;5034685;28;20455;-42
2021/10/30 10:19:27;;;;;;;36.57;24.00;;;8.60;86.70;;;;;;5038796;28;20462;-42
2021/10/30 10:21:55;;;;;;;39.17;22.60;;;8.60;86.80;;;;;;5068122;28;20490;-42
2021/10/30 10:24:32;;;;;;;40.80;22.50;;;8.60;87.00;;;;;;5033562;28;20820;-42
2021/10/30 10:27:01;;;;;;;35.07;21.47;;;8.60;87.10;;;;;;5030895;28;20480;-42
2021/10/30 10:29:32;;;;;;;36.53;20.77;;;8.60;87.30;;;;;;5023337;28;20534;-41
2021/10/30 10:32:20;;;;;;;35.37;22.37;;;8.60;87.30;;;;;;5034936;28;20569;-41
2021/10/30 10:34:48;;;;;;;36.47;22.07;;;8.60;87.50;;;;;;5032809;28;20496;-42
2021/10/30 10:37:15;;;;;;;40.67;22.10;;;8.60;87.70;;;;;;5031787;28;20471;-42
2021/10/30 10:39:59;;;;;;;38.17;21.60;;;8.60;87.70;;;;;;5032739;28;20498;-42
2021/10/30 10:42:35;;;;;;;36.20;21.70;;;8.70;87.80;;;;;;5025995;28;20467;-42
2021/10/30 10:45:06;;;;;;;38.20;20.70;;;8.70;87.70;;;;;;5021829;28;21684;-42
2021/10/30 10:47:38;;;;;;;38.87;21.40;;;8.70;87.70;;;;;;5023141;28;20466;-42
2021/10/30 10:50:21;;;;;;;34.97;20.87;;;8.70;87.70;;;;;;5021724;28;20502;-42
2021/10/30 10:53:00;;;;;;;39.37;21.30;;;8.80;87.90;;;;;;5020624;28;20862;-42
2021/10/30 10:55:28;;;;;;;36.27;21.40;;;8.80;88.00;;;;;;5019777;28;20783;-42
2021/10/30 10:58:03;;;;;;;39.37;22.90;;;8.80;88.10;;;;;;5019586;28;20820;-42
2021/10/30 11:00:32;;;;;;;33.60;20.30;;;8.80;88.20;;;;;;5020235;28;20466;-42
2021/10/30 11:02:59;;;;;;;37.67;21.77;;;8.80;88.20;;;;;;5019583;28;20511;-41
2021/10/30 11:05:34;;;;;;;36.37;21.63;;;8.90;88.30;;;;;;5017735;28;20460;-42
2021/10/30 11:08:12;;;;;;;35.43;20.40;;;8.90;88.30;;;;;;5021698;28;20979;-42
2021/10/30 11:10:43;;;;;;;33.20;21.20;;;8.90;88.30;;;;;;5017667;28;20861;-42
2021/10/30 11:13:14;;;;;;;34.87;21.67;;;9.00;88.00;;;;;;5019439;28;20478;-41
2021/10/30 11:15:55;;;;;;;33.63;22.03;;;9.00;87.90;;;;;;5021637;28;20995;-41
2021/10/30 11:18:22;;;;;;;35.80;20.70;;;8.90;88.00;;;;;;5021079;28;20812;-42
2021/10/30 11:21:26;;;;;;;34.00;20.80;;;9.00;87.80;;;;;;5020276;28;20983;-42
2021/10/30 11:23:57;;;;;;;36.40;18.70;;;9.00;87.80;;;;;;5012184;28;20471;-42
2021/10/30 11:26:34;;;;;;;36.83;20.10;;;9.00;87.80;;;;;;5017590;28;20824;-43
2021/10/30 11:29:08;;;;;;;32.30;19.50;;;9.10;87.60;;;;;;5014392;28;20821;-42
2021/10/30 11:31:36;;;;;;;36.13;20.40;;;9.10;87.70;;;;;;5021040;28;20503;-42
2021/10/30 11:34:04;;;;;;;38.07;19.20;;;9.10;87.60;;;;;;5021545;28;20478;-42
2021/10/30 11:36:36;;;;;;;33.70;20.70;;;9.10;87.60;;;;;;5023977;28;20452;-42
2021/10/30 11:39:08;;;;;;;36.80;20.20;;;9.10;87.80;;;;;;5021559;28;20465;-42
2021/10/30 11:41:36;;;;;;;34.13;19.27;;;9.10;87.80;;;;;;5028422;28;20473;-42
2021/10/30 11:44:14;;;;;;;35.83;20.00;;;9.10;88.00;;;;;;5019562;28;20851;-41
2021/10/30 11:46:50;;;;;;;40.63;21.10;;;9.20;87.80;;;;;;5031795;28;20793;-42
2021/10/30 11:49:25;;;;;;;29.37;19.80;;;9.20;87.70;;;;;;5021598;28;20978;-42
2021/10/30 11:51:51;;;;;;;31.80;19.90;;;9.20;87.90;;;;;;5020976;28;20474;-42
2021/10/30 11:54:22;;;;;;;36.47;22.07;;;9.20;88.20;;;;;;5022059;28;20482;-42
2021/10/30 12:00:59;;;;;;;28.50;19.10;;;9.30;88.00;;;;;;4743951;23;20448;-42
2021/10/30 12:03:35;;;;;;;35.77;19.57;;;9.20;87.80;;;;;;5046162;28;20458;-42
2021/10/30 12:06:01;;;;;;;33.00;20.17;;;9.20;88.10;;;;;;5046003;28;20894;-42
2021/10/30 12:08:36;;;;;;;32.77;21.60;;;9.20;88.20;;;;;;5043811;28;20465;-42
2021/10/30 12:11:06;;;;;;;38.37;22.17;;;9.20;88.30;;;;;;5047986;28;20478;-42
2021/10/30 12:13:34;;;;;;;39.60;22.70;;;9.30;88.40;;;;;;5042471;28;20451;-42
2021/10/30 12:16:04;;;;;;;33.13;19.63;;;9.30;88.40;;;;;;5046978;28;20831;-42
2021/10/30 12:18:31;;;;;;;37.37;21.27;;;9.30;88.30;;;;;;5042897;28;20481;-42
2021/10/30 12:20:58;;;;;;;35.67;21.83;;;9.30;88.20;;;;;;5029091;28;20983;-42
2021/10/30 12:23:26;;;;;;;38.73;21.73;;;9.30;88.10;;;;;;5048049;28;20455;-42
2021/10/30 12:26:04;;;;;;;39.33;21.57;;;9.30;88.10;;;;;;5047142;28;20470;-42
2021/10/30 12:28:35;;;;;;;32.50;20.37;;;9.30;88.10;;;;;;5045444;28;20462;-42
2021/10/30 12:31:06;;;;;;;26.70;19.27;;;9.30;88.10;;;;;;5047461;28;20791;-42
2021/10/30 12:33:36;;;;;;;35.47;20.80;;;9.20;88.10;;;;;;5045885;28;20442;-42
2021/10/30 12:36:05;;;;;;;30.47;20.17;;;9.20;88.00;;;;;;5045911;28;20451;-42
2021/10/30 12:38:35;;;;;;;35.67;22.93;;;9.30;88.10;;;;;;5043782;28;20447;-42
2021/10/30 12:41:16;;;;;;;34.13;21.00;;;9.30;88.10;;;;;;5042867;28;20455;-42
2021/10/30 12:43:47;;;;;;;34.77;20.17;;;9.20;88.10;;;;;;5042626;28;20461;-42
2021/10/30 12:46:13;;;;;;;31.50;19.57;;;9.20;88.10;;;;;;5028064;28;20461;-42
2021/10/30 12:48:45;;;;;;;34.50;22.13;;;9.20;88.30;;;;;;5045746;28;20459;-42
2021/10/30 12:51:17;;;;;;;32.57;18.90;;;9.20;88.30;;;;;;5046715;28;20538;-42
2021/10/30 12:53:51;;;;;;;33.43;19.40;;;9.20;88.40;;;;;;5046751;28;20535;-42
2021/10/30 12:56:19;;;;;;;27.50;17.53;;;9.20;88.50;;;;;;5043879;28;20457;-42
2021/10/30 12:58:54;;;;;;;38.50;20.30;;;9.20;88.70;;;;;;5025335;28;20465;-42